Forester — DIUT — position and weather

sailwx.info

Track history (hours):
 
Tides and Currents Weather Stations Pressure Air Temp Water Temp Dewpoint Dewpoint Depression Visibility Wind Speed Wind Dir Waves Ship Positions

Forester

Last reported at 2018-Apr-23 03:31 UTC. Time now 2018-Apr-23 03:53 UTC.
Position N 54°22' E 009°48'.

Length 100 m; draft 6.7 m.

Type: Ship. MMSI: 211233870.

Date/timePositionNaut miles runAvg speedWind from/ knotsBaromVisibWave heightAir tempDewpointWater temp
2018-Apr-23 03:31N 54°22' E 009°48'12 5.1
2018-Apr-23 01:13N 54°22' E 010°08'0 1.7
2018-Apr-23 01:00N 54°22' E 010°09'0 0.1
2018-Apr-23 00:29N 54°22' E 010°09'12 5.7
2018-Apr-22 22:22N 54°32' E 010°21'0 0.2
2018-Apr-22 22:00N 54°32' E 010°21'3 5.3
2018-Apr-22 21:30N 54°32' E 010°25'611.8
2018-Apr-22 21:00N 54°34' E 010°35'612.0
2018-Apr-22 20:30N 54°35' E 010°45'611.5
2018-Apr-22 20:00N 54°35' E 010°55'611.3
2018-Apr-22 19:31N 54°36' E 011°05'611.4
2018-Apr-22 19:00N 54°35' E 011°14'611.5
2018-Apr-22 18:30N 54°33' E 011°23'611.4
2018-Apr-22 18:01N 54°30' E 011°32'611.4
2018-Apr-22 17:30N 54°28' E 011°41'611.3
2018-Apr-22 17:00N 54°26' E 011°50'611.5
2018-Apr-22 16:29N 54°27' E 012°01'611.4
2018-Apr-22 16:00N 54°28' E 012°10'611.8
2018-Apr-22 15:30N 54°34' E 012°13'511.0
2018-Apr-22 15:01N 54°38' E 012°18'611.4
2018-Apr-22 14:29N 54°41' E 012°27'711.7
2018-Apr-22 13:53N 54°45' E 012°37'511.8
2018-Apr-22 13:26N 54°48' E 012°45'1211.9
2018-Apr-22 12:26N 54°52' E 013°04'512.2
2018-Apr-22 11:59N 54°54' E 013°13'612.1
2018-Apr-22 11:29N 54°56' E 013°23'911.7
2018-Apr-22 10:43N 54°59' E 013°38'511.0
2018-Apr-22 10:18N 55°01' E 013°45'911.3
2018-Apr-22 09:32N 55°04' E 013°59'011.7
2018-Apr-22 09:31N 55°04' E 013°60'611.5
2018-Apr-22 09:00N 55°08' E 014°08'712.0
2018-Apr-22 08:25N 55°13' E 014°15'512.0
2018-Apr-22 08:00N 55°17' E 014°21'612.0
2018-Apr-22 07:30N 55°22' E 014°28'611.9
2018-Apr-22 07:00N 55°26' E 014°34'611.7
2018-Apr-22 06:30N 55°30' E 014°43'611.8
2018-Apr-22 06:01N 55°33' E 014°52'611.7
2018-Apr-22 05:31N 55°35' E 015°01'611.4
2018-Apr-22 05:00N 55°38' E 015°09'611.5
2018-Apr-22 04:31N 55°41' E 015°18'611.5
2018-Apr-22 04:00N 55°44' E 015°27'611.5
2018-Apr-22 03:30N 55°47' E 015°36'611.7
2018-Apr-22 03:00N 55°50' E 015°45'611.6
2018-Apr-22 02:31N 55°53' E 015°54'611.6
2018-Apr-22 02:01N 55°55' E 016°03'611.6
2018-Apr-22 01:31N 55°58' E 016°12'611.6
2018-Apr-22 01:00N 56°01' E 016°21'611.9
2018-Apr-22 00:30N 56°04' E 016°30'611.8
2018-Apr-22 00:00N 56°08' E 016°39'611.4
2018-Apr-21 23:30N 56°12' E 016°45'612.2
2018-Apr-21 23:00N 56°18' E 016°48'612.3
2018-Apr-21 22:30N 56°24' E 016°51'612.2
2018-Apr-21 22:00N 56°30' E 016°54'47 7.1
2018-Apr-21 15:28N 57°17' E 016°46'511.8
2018-Apr-21 15:00N 57°12' E 016°40'610.3
2018-Apr-21 14:27N 57°08' E 016°33'2 4.4
2018-Apr-21 14:00N 57°06' E 016°33'0 0.0
2018-Apr-21 12:36N 57°06' E 016°33'0 0.0
2018-Apr-21 11:21N 57°06' E 016°33'0 0.0
2018-Apr-21 10:42N 57°06' E 016°33'0 0.0
2018-Apr-21 10:24N 57°06' E 016°33'0 0.0
2018-Apr-21 09:06N 57°06' E 016°33'0 0.0
2018-Apr-21 09:00N 57°06' E 016°33'0 0.9
2018-Apr-21 08:30N 57°06' E 016°33'3 7.0
2018-Apr-21 08:00N 57°10' E 016°35'4 8.1
2018-Apr-21 07:30N 57°13' E 016°40'610.8
2018-Apr-21 07:00N 57°17' E 016°47'37 6.8
2018-Apr-21 01:36N 56°41' E 017°04'112.2
2018-Apr-21 01:29N 56°40' E 017°04'912.2
2018-Apr-21 00:43N 56°31' E 017°02'312.3
2018-Apr-21 00:30N 56°28' E 017°01'612.4
2018-Apr-21 00:00N 56°22' E 016°59'612.4
2018-Apr-20 23:30N 56°16' E 016°57'612.3
2018-Apr-20 23:00N 56°10' E 016°54'612.5
2018-Apr-20 22:30N 56°05' E 016°48'612.6
2018-Apr-20 22:00N 56°01' E 016°39'612.3
2018-Apr-20 21:30N 56°00' E 016°28'612.6
2018-Apr-20 21:00N 55°60' E 016°17'612.6
2018-Apr-20 20:30N 55°60' E 016°06'612.5
2018-Apr-20 20:00N 55°59' E 015°54'612.0
2018-Apr-20 19:30N 56°00' E 015°44'612.4
2018-Apr-20 19:00N 56°02' E 015°33'612.0
2018-Apr-20 18:30N 56°03' E 015°22'611.1
2018-Apr-20 18:00N 56°04' E 015°13'611.7
2018-Apr-20 17:30N 56°05' E 015°02'611.7
2018-Apr-20 17:00N 56°07' E 014°52'3 0.4
2018-Apr-20 09:39N 56°09' E 014°49'0 0.0
2018-Apr-20 08:58N 56°09' E 014°49'1 1.1
2018-Apr-20 08:23N 56°09' E 014°49'3 8.6
2018-Apr-20 08:00N 56°06' E 014°49'3 5.5
2018-Apr-20 07:31N 56°03' E 014°50'2 4.8
2018-Apr-20 07:00N 56°00' E 014°48'2 5.0
2018-Apr-20 06:30N 55°58' E 014°46'5 9.9
2018-Apr-20 05:59N 55°53' E 014°44'510.0
2018-Apr-20 05:30N 55°48' E 014°43'510.0
2018-Apr-20 05:01N 55°44' E 014°42'5 9.6
2018-Apr-20 04:30N 55°39' E 014°41'5 9.7
2018-Apr-20 04:00N 55°34' E 014°40'5 9.6
2018-Apr-20 03:30N 55°29' E 014°39'5 9.6
2018-Apr-20 03:00N 55°24' E 014°38'5 9.7
2018-Apr-20 02:30N 55°21' E 014°32'5 9.6
2018-Apr-20 02:01N 55°17' E 014°27'5 9.6
2018-Apr-20 01:30N 55°13' E 014°22'5 9.8
2018-Apr-20 01:00N 55°10' E 014°15'5 9.9
2018-Apr-20 00:30N 55°10' E 014°06'510.1
2018-Apr-20 00:00N 55°11' E 013°57'510.0
2018-Apr-19 23:28N 55°11' E 013°48'5 9.8
2018-Apr-19 23:00N 55°12' E 013°40'5 9.7
2018-Apr-19 22:30N 55°13' E 013°32'5 9.8
2018-Apr-19 22:00N 55°13' E 013°23'510.0
2018-Apr-19 21:30N 55°13' E 013°14'510.0
2018-Apr-19 20:59N 55°13' E 013°05'4 8.8
2018-Apr-19 20:30N 55°15' E 012°58'5 9.8
2018-Apr-19 20:00N 55°15' E 012°50'5 9.8
2018-Apr-19 19:30N 55°17' E 012°42'4 8.9
2018-Apr-19 19:00N 55°21' E 012°39'611.3
2018-Apr-19 18:30N 55°27' E 012°41'511.0
2018-Apr-19 18:00N 55°32' E 012°42'510.5
2018-Apr-19 17:31N 55°38' E 012°42'611.3
2018-Apr-19 17:01N 55°43' E 012°41'611.9
2018-Apr-19 16:30N 55°49' E 012°42'611.4
2018-Apr-19 16:01N 55°54' E 012°38'611.2
2018-Apr-19 15:31N 56°00' E 012°38'510.2
2018-Apr-19 15:01N 56°05' E 012°35'611.6
2018-Apr-19 14:31N 56°09' E 012°27'510.6
2018-Apr-19 14:00N 56°13' E 012°21'612.0
2018-Apr-19 13:30N 56°19' E 012°22'711.8
2018-Apr-19 12:57N 56°25' E 012°22'512.2
2018-Apr-19 12:30N 56°31' E 012°21'712.1
2018-Apr-19 11:58N 56°37' E 012°19'611.8
2018-Apr-19 11:27N 56°43' E 012°17'511.6
2018-Apr-19 10:59N 56°48' E 012°16'611.7
2018-Apr-19 10:30N 56°54' E 012°14'611.8
2018-Apr-19 09:57N 57°00' E 012°13'510.8
2018-Apr-19 09:29N 57°06' E 012°13'1 0.1
2018-Apr-18 17:02N 57°06' E 012°11'2 9.9
2018-Apr-18 16:51N 57°06' E 012°08'411.3
2018-Apr-18 16:28N 57°09' E 012°02'612.3
2018-Apr-18 16:00N 57°13' E 011°54'612.0
2018-Apr-18 15:30N 57°17' E 011°46'611.9
2018-Apr-18 15:00N 57°20' E 011°37'611.5
2018-Apr-18 14:31N 57°24' E 011°29'611.5
2018-Apr-18 14:01N 57°28' E 011°21'611.5
2018-Apr-18 13:30N 57°32' E 011°13'511.0
2018-Apr-18 13:00N 57°36' E 011°07'611.3
2018-Apr-18 12:30N 57°40' E 010°59'611.5
2018-Apr-18 12:00N 57°44' E 010°51'611.8
2018-Apr-18 11:30N 57°47' E 010°42'611.6
2018-Apr-18 11:01N 57°47' E 010°31'611.4
2018-Apr-18 10:30N 57°45' E 010°21'811.7
2018-Apr-18 09:52N 57°42' E 010°08'512.3
2018-Apr-18 09:29N 57°40' E 009°60'712.4
2018-Apr-18 08:57N 57°37' E 009°49'512.1
2018-Apr-18 08:30N 57°35' E 009°40'1311.8
2018-Apr-18 07:23N 57°27' E 009°19'12511.2
2018-Apr-17 20:18N 55°52' E 006°53'411.6
2018-Apr-17 19:59N 55°49' E 006°49'611.5
2018-Apr-17 19:30N 55°45' E 006°44'611.8
2018-Apr-17 19:00N 55°40' E 006°39'611.7
2018-Apr-17 18:29N 55°35' E 006°33'611.6
2018-Apr-17 18:01N 55°30' E 006°28'611.5
2018-Apr-17 17:29N 55°25' E 006°22'611.5
2018-Apr-17 16:59N 55°20' E 006°17'611.5
2018-Apr-17 16:29N 55°15' E 006°12'611.4
2018-Apr-17 15:58N 55°10' E 006°07'511.3
2018-Apr-17 15:30N 55°05' E 006°02'611.3
2018-Apr-17 15:00N 55°00' E 005°57'8011.4
2018-Apr-17 07:59N 53°48' E 004°58'612.0
2018-Apr-17 07:27N 53°42' E 004°54'512.3
2018-Apr-17 07:00N 53°37' E 004°51'612.8
2018-Apr-17 06:30N 53°31' E 004°47'713.6
2018-Apr-17 06:00N 53°25' E 004°43'714.2
2018-Apr-17 05:31N 53°18' E 004°38'714.8
2018-Apr-17 05:00N 53°12' E 004°33'714.3
2018-Apr-17 04:31N 53°06' E 004°27'714.1
2018-Apr-17 04:00N 52°60' E 004°21'714.2
2018-Apr-17 03:30N 52°53' E 004°16'713.9
2018-Apr-17 03:00N 52°47' E 004°10'713.8
2018-Apr-17 02:30N 52°42' E 004°03'713.5
2018-Apr-17 02:00N 52°37' E 003°55'713.1
2018-Apr-17 01:30N 52°32' E 003°48'612.7
2018-Apr-17 01:00N 52°28' E 003°40'612.3
2018-Apr-17 00:30N 52°23' E 003°34'612.0
2018-Apr-17 00:01N 52°17' E 003°31'611.7
2018-Apr-16 23:30N 52°12' E 003°28'611.4
2018-Apr-16 22:59N 52°06' E 003°25'611.2
2018-Apr-16 22:29N 52°00' E 003°24'511.1
2018-Apr-16 22:00N 51°55' E 003°23'510.3
2018-Apr-16 21:29N 51°50' E 003°20'510.4
2018-Apr-16 21:00N 51°46' E 003°16'4 8.7
2018-Apr-16 20:30N 51°41' E 003°18'510.9
2018-Apr-16 20:00N 51°37' E 003°22'510.6
2018-Apr-16 19:30N 51°32' E 003°26'511.0
2018-Apr-16 19:01N 51°28' E 003°31'611.6
2018-Apr-16 18:30N 51°27' E 003°40'2 2.8
2018-Apr-16 17:58N 51°27' E 003°43'0 0.0
2018-Apr-16 17:28N 51°27' E 003°43'0 0.0
2018-Apr-16 16:55N 51°27' E 003°43'0 0.0
2018-Apr-16 16:28N 51°27' E 003°43'0 0.0
2018-Apr-16 15:55N 51°27' E 003°43'0 0.0
2018-Apr-16 15:28N 51°27' E 003°43'0 0.0
2018-Apr-16 14:58N 51°27' E 003°43'0 0.0
2018-Apr-16 14:22N 51°27' E 003°43'0 0.0
2018-Apr-16 13:58N 51°27' E 003°43'0 0.0
2018-Apr-16 13:31N 51°27' E 003°43'0 0.0
2018-Apr-16 13:01N 51°27' E 003°43'0 0.0
2018-Apr-16 12:31N 51°27' E 003°43'0 0.0
2018-Apr-16 11:57N 51°27' E 003°43'0 0.0
2018-Apr-16 11:30N 51°27' E 003°43'0 0.0
2018-Apr-16 11:00N 51°27' E 003°43'0 0.0
2018-Apr-16 10:30N 51°27' E 003°43'0 0.0
2018-Apr-16 10:00N 51°27' E 003°43'0 0.0
2018-Apr-16 09:30N 51°27' E 003°43'0 0.0
2018-Apr-16 09:00N 51°27' E 003°43'0 0.0
2018-Apr-16 08:29N 51°27' E 003°43'0 0.0
2018-Apr-16 07:59N 51°27' E 003°43'0 0.0
2018-Apr-16 07:29N 51°27' E 003°43'0 0.0
2018-Apr-16 06:59N 51°27' E 003°43'0 0.0
2018-Apr-16 06:29N 51°27' E 003°43'0 0.0
2018-Apr-16 05:59N 51°27' E 003°43'0 0.0
2018-Apr-16 05:29N 51°27' E 003°43'0 0.0
2018-Apr-16 04:59N 51°27' E 003°43'0 0.0
2018-Apr-16 04:28N 51°27' E 003°43'0 0.0
2018-Apr-16 03:58N 51°27' E 003°43'0 0.0
2018-Apr-16 03:28N 51°27' E 003°43'0 0.0
2018-Apr-16 03:00N 51°27' E 003°43'0 0.0
2018-Apr-16 02:30N 51°27' E 003°43'0 0.0
2018-Apr-16 02:00N 51°27' E 003°43'0 0.0
2018-Apr-16 01:30N 51°27' E 003°43'0 0.0
2018-Apr-16 01:00N 51°27' E 003°43'0 0.0
2018-Apr-16 00:30N 51°27' E 003°43'0 0.0
2018-Apr-15 23:57N 51°27' E 003°43'0 0.0
2018-Apr-15 23:30N 51°27' E 003°43'0 0.0
2018-Apr-15 23:00N 51°27' E 003°43'0 0.0
2018-Apr-15 22:30N 51°27' E 003°43'0 0.0
2018-Apr-15 22:00N 51°27' E 003°43'1 1.3
2018-Apr-15 21:31N 51°27' E 003°42'3 5.6
2018-Apr-15 21:00N 51°26' E 003°38'510.9
2018-Apr-15 20:30N 51°29' E 003°30'612.8
2018-Apr-15 20:00N 51°34' E 003°24'611.6
2018-Apr-15 19:30N 51°39' E 003°19'611.1
2018-Apr-15 19:00N 51°44' E 003°15'510.2
2018-Apr-15 18:29N 51°49' E 003°16'511.2
2018-Apr-15 18:00N 51°54' E 003°18'2011.5
2018-Apr-15 16:17N 52°14' E 003°24'410.9
2018-Apr-15 15:56N 52°17' E 003°26'510.7
2018-Apr-15 15:29N 52°22' E 003°29'510.4
2018-Apr-15 15:00N 52°27' E 003°32'510.3
2018-Apr-15 14:29N 52°32' E 003°34'510.2
2018-Apr-15 14:00N 52°36' E 003°37'6611.9
2018-Apr-15 08:29N 53°29' E 004°43'611.7
2018-Apr-15 08:00N 53°30' E 004°52'9311.9
2018-Apr-15 00:13N 53°58' E 007°22'312.4
2018-Apr-14 23:59N 53°58' E 007°27'612.1
2018-Apr-14 23:29N 54°00' E 007°37'611.6
2018-Apr-14 23:00N 54°01' E 007°46'611.4
2018-Apr-14 22:30N 54°01' E 007°56'611.3
2018-Apr-14 21:59N 54°01' E 008°06'510.5
2018-Apr-14 21:30N 54°00' E 008°14'5 9.2
2018-Apr-14 21:00N 53°60' E 008°22'4 8.1
2018-Apr-14 20:30N 53°59' E 008°29'4 7.6
2018-Apr-14 20:00N 53°58' E 008°35'5 9.4
2018-Apr-14 19:30N 53°55' E 008°41'510.5
2018-Apr-14 19:00N 53°51' E 008°47'713.8
2018-Apr-14 18:30N 53°51' E 008°58'612.8
2018-Apr-14 18:01N 53°53' E 009°08'0 0.9
2018-Apr-14 17:30N 53°54' E 009°09'1 2.7
2018-Apr-14 17:00N 53°55' E 009°10'4 8.5
2018-Apr-14 16:30N 53°58' E 009°15'4 8.2
2018-Apr-14 16:00N 54°02' E 009°18'1 1.2
2018-Apr-14 15:31N 54°02' E 009°18'0 0.4
2018-Apr-14 15:00N 54°02' E 009°18'2 4.8
2018-Apr-14 14:31N 54°05' E 009°19'4 8.4
2018-Apr-14 14:00N 54°09' E 009°21'4 8.6
2018-Apr-14 13:30N 54°11' E 009°28'4 8.5
2018-Apr-14 13:00N 54°12' E 009°34'4 7.5
2018-Apr-14 12:30N 54°16' E 009°37'4 7.2
2018-Apr-14 12:00N 54°18' E 009°42'1 2.7
2018-Apr-14 11:31N 54°19' E 009°43'3 5.5
2018-Apr-14 11:01N 54°21' E 009°46'20 2.9
2018-Apr-14 04:03N 54°30' E 010°17'2 9.5
2018-Apr-14 03:49N 54°31' E 010°21'3 9.9
2018-Apr-14 03:31N 54°32' E 010°25'5 9.9
2018-Apr-14 03:00N 54°34' E 010°33'5 9.6
2018-Apr-14 02:31N 54°35' E 010°41'510.2
2018-Apr-14 02:01N 54°35' E 010°50'510.4
2018-Apr-14 01:30N 54°36' E 010°59'5 9.9
2018-Apr-14 01:00N 54°37' E 011°07'510.6
2018-Apr-14 00:30N 54°35' E 011°16'510.6
2018-Apr-14 00:00N 54°32' E 011°24'510.5
2018-Apr-13 23:30N 54°30' E 011°32'611.0
2018-Apr-13 23:00N 54°28' E 011°40'611.0
2018-Apr-13 22:31N 54°26' E 011°49'610.7
2018-Apr-13 21:58N 54°26' E 011°59'510.7
2018-Apr-13 21:30N 54°27' E 012°08'6810.7
2018-Apr-13 15:09N 55°02' E 013°48'410.9
2018-Apr-13 14:49N 55°03' E 013°54'2110.3
2018-Apr-13 12:50N 55°17' E 014°20'411.4
2018-Apr-13 12:30N 55°20' E 014°24'511.0
2018-Apr-13 12:00N 55°25' E 014°30'811.0
2018-Apr-13 11:15N 55°30' E 014°42'310.9
2018-Apr-13 11:00N 55°31' E 014°46'611.0
2018-Apr-13 10:29N 55°34' E 014°55'511.1
2018-Apr-13 10:00N 55°37' E 015°03'511.1
2018-Apr-13 09:30N 55°40' E 015°11'611.2
2018-Apr-13 09:00N 55°42' E 015°20'611.2
2018-Apr-13 08:31N 55°45' E 015°28'611.1
2018-Apr-13 08:01N 55°47' E 015°37'611.4
2018-Apr-13 07:30N 55°50' E 015°46'611.6
2018-Apr-13 07:01N 55°53' E 015°55'611.4
2018-Apr-13 06:30N 55°56' E 016°04'611.7
2018-Apr-13 06:01N 55°59' E 016°13'612.1
2018-Apr-13 05:31N 56°02' E 016°22'612.1
2018-Apr-13 05:01N 56°05' E 016°32'612.0
2018-Apr-13 04:30N 56°08' E 016°41'611.6
2018-Apr-13 04:00N 56°13' E 016°45'611.8
2018-Apr-13 03:31N 56°19' E 016°48'  
Track history (hours):
 
Tides and Currents Weather Stations Pressure Air Temp Water Temp Dewpoint Dewpoint Depression Visibility Wind Speed Wind Dir Waves Ship Positions

Forester

Last reported at 2018-Apr-23 03:31 UTC. Time now 2018-Apr-23 03:53 UTC.
Position N 54°22' E 009°48'.

Length 100 m; draft 6.7 m.

Type: Ship. MMSI: 211233870.

Date/timePositionNaut miles runAvg speedWind from/ knotsBaromVisibWave heightAir tempDewpointWater temp
2018-Apr-23 03:31N 54°22' E 009°48'12 5.1
2018-Apr-23 01:13N 54°22' E 010°08'0 1.7
2018-Apr-23 01:00N 54°22' E 010°09'0 0.1
2018-Apr-23 00:29N 54°22' E 010°09'12 5.7
2018-Apr-22 22:22N 54°32' E 010°21'0 0.2
2018-Apr-22 22:00N 54°32' E 010°21'3 5.3
2018-Apr-22 21:30N 54°32' E 010°25'611.8
2018-Apr-22 21:00N 54°34' E 010°35'612.0
2018-Apr-22 20:30N 54°35' E 010°45'611.5
2018-Apr-22 20:00N 54°35' E 010°55'611.3
2018-Apr-22 19:31N 54°36' E 011°05'611.4
2018-Apr-22 19:00N 54°35' E 011°14'611.5
2018-Apr-22 18:30N 54°33' E 011°23'611.4
2018-Apr-22 18:01N 54°30' E 011°32'611.4
2018-Apr-22 17:30N 54°28' E 011°41'611.3
2018-Apr-22 17:00N 54°26' E 011°50'611.5
2018-Apr-22 16:29N 54°27' E 012°01'611.4
2018-Apr-22 16:00N 54°28' E 012°10'611.8
2018-Apr-22 15:30N 54°34' E 012°13'511.0
2018-Apr-22 15:01N 54°38' E 012°18'611.4
2018-Apr-22 14:29N 54°41' E 012°27'711.7
2018-Apr-22 13:53N 54°45' E 012°37'511.8
2018-Apr-22 13:26N 54°48' E 012°45'1211.9
2018-Apr-22 12:26N 54°52' E 013°04'512.2
2018-Apr-22 11:59N 54°54' E 013°13'612.1
2018-Apr-22 11:29N 54°56' E 013°23'911.7
2018-Apr-22 10:43N 54°59' E 013°38'511.0
2018-Apr-22 10:18N 55°01' E 013°45'911.3
2018-Apr-22 09:32N 55°04' E 013°59'011.7
2018-Apr-22 09:31N 55°04' E 013°60'611.5
2018-Apr-22 09:00N 55°08' E 014°08'712.0
2018-Apr-22 08:25N 55°13' E 014°15'512.0
2018-Apr-22 08:00N 55°17' E 014°21'612.0
2018-Apr-22 07:30N 55°22' E 014°28'611.9
2018-Apr-22 07:00N 55°26' E 014°34'611.7
2018-Apr-22 06:30N 55°30' E 014°43'611.8
2018-Apr-22 06:01N 55°33' E 014°52'611.7
2018-Apr-22 05:31N 55°35' E 015°01'611.4
2018-Apr-22 05:00N 55°38' E 015°09'611.5
2018-Apr-22 04:31N 55°41' E 015°18'611.5
2018-Apr-22 04:00N 55°44' E 015°27'611.5
2018-Apr-22 03:30N 55°47' E 015°36'611.7
2018-Apr-22 03:00N 55°50' E 015°45'611.6
2018-Apr-22 02:31N 55°53' E 015°54'611.6
2018-Apr-22 02:01N 55°55' E 016°03'611.6
2018-Apr-22 01:31N 55°58' E 016°12'611.6
2018-Apr-22 01:00N 56°01' E 016°21'611.9
2018-Apr-22 00:30N 56°04' E 016°30'611.8
2018-Apr-22 00:00N 56°08' E 016°39'611.4
2018-Apr-21 23:30N 56°12' E 016°45'612.2
2018-Apr-21 23:00N 56°18' E 016°48'612.3
2018-Apr-21 22:30N 56°24' E 016°51'612.2
2018-Apr-21 22:00N 56°30' E 016°54'47 7.1
2018-Apr-21 15:28N 57°17' E 016°46'511.8
2018-Apr-21 15:00N 57°12' E 016°40'610.3
2018-Apr-21 14:27N 57°08' E 016°33'2 4.4
2018-Apr-21 14:00N 57°06' E 016°33'0 0.0
2018-Apr-21 12:36N 57°06' E 016°33'0 0.0
2018-Apr-21 11:21N 57°06' E 016°33'0 0.0
2018-Apr-21 10:42N 57°06' E 016°33'0 0.0
2018-Apr-21 10:24N 57°06' E 016°33'0 0.0
2018-Apr-21 09:06N 57°06' E 016°33'0 0.0
2018-Apr-21 09:00N 57°06' E 016°33'0 0.9
2018-Apr-21 08:30N 57°06' E 016°33'3 7.0
2018-Apr-21 08:00N 57°10' E 016°35'4 8.1
2018-Apr-21 07:30N 57°13' E 016°40'610.8
2018-Apr-21 07:00N 57°17' E 016°47'37 6.8
2018-Apr-21 01:36N 56°41' E 017°04'112.2
2018-Apr-21 01:29N 56°40' E 017°04'912.2
2018-Apr-21 00:43N 56°31' E 017°02'312.3
2018-Apr-21 00:30N 56°28' E 017°01'612.4
2018-Apr-21 00:00N 56°22' E 016°59'612.4
2018-Apr-20 23:30N 56°16' E 016°57'612.3
2018-Apr-20 23:00N 56°10' E 016°54'612.5
2018-Apr-20 22:30N 56°05' E 016°48'612.6
2018-Apr-20 22:00N 56°01' E 016°39'612.3
2018-Apr-20 21:30N 56°00' E 016°28'612.6
2018-Apr-20 21:00N 55°60' E 016°17'612.6
2018-Apr-20 20:30N 55°60' E 016°06'612.5
2018-Apr-20 20:00N 55°59' E 015°54'612.0
2018-Apr-20 19:30N 56°00' E 015°44'612.4
2018-Apr-20 19:00N 56°02' E 015°33'612.0
2018-Apr-20 18:30N 56°03' E 015°22'611.1
2018-Apr-20 18:00N 56°04' E 015°13'611.7
2018-Apr-20 17:30N 56°05' E 015°02'611.7
2018-Apr-20 17:00N 56°07' E 014°52'3 0.4
2018-Apr-20 09:39N 56°09' E 014°49'0 0.0
2018-Apr-20 08:58N 56°09' E 014°49'1 1.1
2018-Apr-20 08:23N 56°09' E 014°49'3 8.6
2018-Apr-20 08:00N 56°06' E 014°49'3 5.5
2018-Apr-20 07:31N 56°03' E 014°50'2 4.8
2018-Apr-20 07:00N 56°00' E 014°48'2 5.0
2018-Apr-20 06:30N 55°58' E 014°46'5 9.9
2018-Apr-20 05:59N 55°53' E 014°44'510.0
2018-Apr-20 05:30N 55°48' E 014°43'510.0
2018-Apr-20 05:01N 55°44' E 014°42'5 9.6
2018-Apr-20 04:30N 55°39' E 014°41'5 9.7
2018-Apr-20 04:00N 55°34' E 014°40'5 9.6
2018-Apr-20 03:30N 55°29' E 014°39'5 9.6
2018-Apr-20 03:00N 55°24' E 014°38'5 9.7
2018-Apr-20 02:30N 55°21' E 014°32'5 9.6
2018-Apr-20 02:01N 55°17' E 014°27'5 9.6
2018-Apr-20 01:30N 55°13' E 014°22'5 9.8
2018-Apr-20 01:00N 55°10' E 014°15'5 9.9
2018-Apr-20 00:30N 55°10' E 014°06'510.1
2018-Apr-20 00:00N 55°11' E 013°57'510.0
2018-Apr-19 23:28N 55°11' E 013°48'5 9.8
2018-Apr-19 23:00N 55°12' E 013°40'5 9.7
2018-Apr-19 22:30N 55°13' E 013°32'5 9.8
2018-Apr-19 22:00N 55°13' E 013°23'510.0
2018-Apr-19 21:30N 55°13' E 013°14'510.0
2018-Apr-19 20:59N 55°13' E 013°05'4 8.8
2018-Apr-19 20:30N 55°15' E 012°58'5 9.8
2018-Apr-19 20:00N 55°15' E 012°50'5 9.8
2018-Apr-19 19:30N 55°17' E 012°42'4 8.9
2018-Apr-19 19:00N 55°21' E 012°39'611.3
2018-Apr-19 18:30N 55°27' E 012°41'511.0
2018-Apr-19 18:00N 55°32' E 012°42'510.5
2018-Apr-19 17:31N 55°38' E 012°42'611.3
2018-Apr-19 17:01N 55°43' E 012°41'611.9
2018-Apr-19 16:30N 55°49' E 012°42'611.4
2018-Apr-19 16:01N 55°54' E 012°38'611.2
2018-Apr-19 15:31N 56°00' E 012°38'510.2
2018-Apr-19 15:01N 56°05' E 012°35'611.6
2018-Apr-19 14:31N 56°09' E 012°27'510.6
2018-Apr-19 14:00N 56°13' E 012°21'612.0
2018-Apr-19 13:30N 56°19' E 012°22'711.8
2018-Apr-19 12:57N 56°25' E 012°22'512.2
2018-Apr-19 12:30N 56°31' E 012°21'712.1
2018-Apr-19 11:58N 56°37' E 012°19'611.8
2018-Apr-19 11:27N 56°43' E 012°17'511.6
2018-Apr-19 10:59N 56°48' E 012°16'611.7
2018-Apr-19 10:30N 56°54' E 012°14'611.8
2018-Apr-19 09:57N 57°00' E 012°13'510.8
2018-Apr-19 09:29N 57°06' E 012°13'1 0.1
2018-Apr-18 17:02N 57°06' E 012°11'2 9.9
2018-Apr-18 16:51N 57°06' E 012°08'411.3
2018-Apr-18 16:28N 57°09' E 012°02'612.3
2018-Apr-18 16:00N 57°13' E 011°54'612.0
2018-Apr-18 15:30N 57°17' E 011°46'611.9
2018-Apr-18 15:00N 57°20' E 011°37'611.5
2018-Apr-18 14:31N 57°24' E 011°29'611.5
2018-Apr-18 14:01N 57°28' E 011°21'611.5
2018-Apr-18 13:30N 57°32' E 011°13'511.0
2018-Apr-18 13:00N 57°36' E 011°07'611.3
2018-Apr-18 12:30N 57°40' E 010°59'611.5
2018-Apr-18 12:00N 57°44' E 010°51'611.8
2018-Apr-18 11:30N 57°47' E 010°42'611.6
2018-Apr-18 11:01N 57°47' E 010°31'611.4
2018-Apr-18 10:30N 57°45' E 010°21'811.7
2018-Apr-18 09:52N 57°42' E 010°08'512.3
2018-Apr-18 09:29N 57°40' E 009°60'712.4
2018-Apr-18 08:57N 57°37' E 009°49'512.1
2018-Apr-18 08:30N 57°35' E 009°40'1311.8
2018-Apr-18 07:23N 57°27' E 009°19'12511.2
2018-Apr-17 20:18N 55°52' E 006°53'411.6
2018-Apr-17 19:59N 55°49' E 006°49'611.5
2018-Apr-17 19:30N 55°45' E 006°44'611.8
2018-Apr-17 19:00N 55°40' E 006°39'611.7
2018-Apr-17 18:29N 55°35' E 006°33'611.6
2018-Apr-17 18:01N 55°30' E 006°28'611.5
2018-Apr-17 17:29N 55°25' E 006°22'611.5
2018-Apr-17 16:59N 55°20' E 006°17'611.5
2018-Apr-17 16:29N 55°15' E 006°12'611.4
2018-Apr-17 15:58N 55°10' E 006°07'511.3
2018-Apr-17 15:30N 55°05' E 006°02'611.3
2018-Apr-17 15:00N 55°00' E 005°57'8011.4
2018-Apr-17 07:59N 53°48' E 004°58'612.0
2018-Apr-17 07:27N 53°42' E 004°54'512.3
2018-Apr-17 07:00N 53°37' E 004°51'612.8
2018-Apr-17 06:30N 53°31' E 004°47'713.6
2018-Apr-17 06:00N 53°25' E 004°43'714.2
2018-Apr-17 05:31N 53°18' E 004°38'714.8
2018-Apr-17 05:00N 53°12' E 004°33'714.3
2018-Apr-17 04:31N 53°06' E 004°27'714.1
2018-Apr-17 04:00N 52°60' E 004°21'714.2
2018-Apr-17 03:30N 52°53' E 004°16'713.9
2018-Apr-17 03:00N 52°47' E 004°10'713.8
2018-Apr-17 02:30N 52°42' E 004°03'713.5
2018-Apr-17 02:00N 52°37' E 003°55'713.1
2018-Apr-17 01:30N 52°32' E 003°48'612.7
2018-Apr-17 01:00N 52°28' E 003°40'612.3
2018-Apr-17 00:30N 52°23' E 003°34'612.0
2018-Apr-17 00:01N 52°17' E 003°31'611.7
2018-Apr-16 23:30N 52°12' E 003°28'611.4
2018-Apr-16 22:59N 52°06' E 003°25'611.2
2018-Apr-16 22:29N 52°00' E 003°24'511.1
2018-Apr-16 22:00N 51°55' E 003°23'510.3
2018-Apr-16 21:29N 51°50' E 003°20'510.4
2018-Apr-16 21:00N 51°46' E 003°16'4 8.7
2018-Apr-16 20:30N 51°41' E 003°18'510.9
2018-Apr-16 20:00N 51°37' E 003°22'510.6
2018-Apr-16 19:30N 51°32' E 003°26'511.0
2018-Apr-16 19:01N 51°28' E 003°31'611.6
2018-Apr-16 18:30N 51°27' E 003°40'2 2.8
2018-Apr-16 17:58N 51°27' E 003°43'0 0.0
2018-Apr-16 17:28N 51°27' E 003°43'0 0.0
2018-Apr-16 16:55N 51°27' E 003°43'0 0.0
2018-Apr-16 16:28N 51°27' E 003°43'0 0.0
2018-Apr-16 15:55N 51°27' E 003°43'0 0.0
2018-Apr-16 15:28N 51°27' E 003°43'0 0.0
2018-Apr-16 14:58N 51°27' E 003°43'0 0.0
2018-Apr-16 14:22N 51°27' E 003°43'0 0.0
2018-Apr-16 13:58N 51°27' E 003°43'0 0.0
2018-Apr-16 13:31N 51°27' E 003°43'0 0.0
2018-Apr-16 13:01N 51°27' E 003°43'0 0.0
2018-Apr-16 12:31N 51°27' E 003°43'0 0.0
2018-Apr-16 11:57N 51°27' E 003°43'0 0.0
2018-Apr-16 11:30N 51°27' E 003°43'0 0.0
2018-Apr-16 11:00N 51°27' E 003°43'0 0.0
2018-Apr-16 10:30N 51°27' E 003°43'0 0.0
2018-Apr-16 10:00N 51°27' E 003°43'0 0.0
2018-Apr-16 09:30N 51°27' E 003°43'0 0.0
2018-Apr-16 09:00N 51°27' E 003°43'0 0.0
2018-Apr-16 08:29N 51°27' E 003°43'0 0.0
2018-Apr-16 07:59N 51°27' E 003°43'0 0.0
2018-Apr-16 07:29N 51°27' E 003°43'0 0.0
2018-Apr-16 06:59N 51°27' E 003°43'0 0.0
2018-Apr-16 06:29N 51°27' E 003°43'0 0.0
2018-Apr-16 05:59N 51°27' E 003°43'0 0.0
2018-Apr-16 05:29N 51°27' E 003°43'0 0.0
2018-Apr-16 04:59N 51°27' E 003°43'0 0.0
2018-Apr-16 04:28N 51°27' E 003°43'0 0.0
2018-Apr-16 03:58N 51°27' E 003°43'0 0.0
2018-Apr-16 03:28N 51°27' E 003°43'0 0.0
2018-Apr-16 03:00N 51°27' E 003°43'0 0.0
2018-Apr-16 02:30N 51°27' E 003°43'0 0.0
2018-Apr-16 02:00N 51°27' E 003°43'0 0.0
2018-Apr-16 01:30N 51°27' E 003°43'0 0.0
2018-Apr-16 01:00N 51°27' E 003°43'0 0.0
2018-Apr-16 00:30N 51°27' E 003°43'0 0.0
2018-Apr-15 23:57N 51°27' E 003°43'0 0.0
2018-Apr-15 23:30N 51°27' E 003°43'0 0.0
2018-Apr-15 23:00N 51°27' E 003°43'0 0.0
2018-Apr-15 22:30N 51°27' E 003°43'0 0.0
2018-Apr-15 22:00N 51°27' E 003°43'1 1.3
2018-Apr-15 21:31N 51°27' E 003°42'3 5.6
2018-Apr-15 21:00N 51°26' E 003°38'510.9
2018-Apr-15 20:30N 51°29' E 003°30'612.8
2018-Apr-15 20:00N 51°34' E 003°24'611.6
2018-Apr-15 19:30N 51°39' E 003°19'611.1
2018-Apr-15 19:00N 51°44' E 003°15'510.2
2018-Apr-15 18:29N 51°49' E 003°16'511.2
2018-Apr-15 18:00N 51°54' E 003°18'2011.5
2018-Apr-15 16:17N 52°14' E 003°24'410.9
2018-Apr-15 15:56N 52°17' E 003°26'510.7
2018-Apr-15 15:29N 52°22' E 003°29'510.4
2018-Apr-15 15:00N 52°27' E 003°32'510.3
2018-Apr-15 14:29N 52°32' E 003°34'510.2
2018-Apr-15 14:00N 52°36' E 003°37'6611.9
2018-Apr-15 08:29N 53°29' E 004°43'611.7
2018-Apr-15 08:00N 53°30' E 004°52'9311.9
2018-Apr-15 00:13N 53°58' E 007°22'312.4
2018-Apr-14 23:59N 53°58' E 007°27'612.1
2018-Apr-14 23:29N 54°00' E 007°37'611.6
2018-Apr-14 23:00N 54°01' E 007°46'611.4
2018-Apr-14 22:30N 54°01' E 007°56'611.3
2018-Apr-14 21:59N 54°01' E 008°06'510.5
2018-Apr-14 21:30N 54°00' E 008°14'5 9.2
2018-Apr-14 21:00N 53°60' E 008°22'4 8.1
2018-Apr-14 20:30N 53°59' E 008°29'4 7.6
2018-Apr-14 20:00N 53°58' E 008°35'5 9.4
2018-Apr-14 19:30N 53°55' E 008°41'510.5
2018-Apr-14 19:00N 53°51' E 008°47'713.8
2018-Apr-14 18:30N 53°51' E 008°58'612.8
2018-Apr-14 18:01N 53°53' E 009°08'0 0.9
2018-Apr-14 17:30N 53°54' E 009°09'1 2.7
2018-Apr-14 17:00N 53°55' E 009°10'4 8.5
2018-Apr-14 16:30N 53°58' E 009°15'4 8.2
2018-Apr-14 16:00N 54°02' E 009°18'1 1.2
2018-Apr-14 15:31N 54°02' E 009°18'0 0.4
2018-Apr-14 15:00N 54°02' E 009°18'2 4.8
2018-Apr-14 14:31N 54°05' E 009°19'4 8.4
2018-Apr-14 14:00N 54°09' E 009°21'4 8.6
2018-Apr-14 13:30N 54°11' E 009°28'4 8.5
2018-Apr-14 13:00N 54°12' E 009°34'4 7.5
2018-Apr-14 12:30N 54°16' E 009°37'4 7.2
2018-Apr-14 12:00N 54°18' E 009°42'1 2.7
2018-Apr-14 11:31N 54°19' E 009°43'3 5.5
2018-Apr-14 11:01N 54°21' E 009°46'20 2.9
2018-Apr-14 04:03N 54°30' E 010°17'2 9.5
2018-Apr-14 03:49N 54°31' E 010°21'3 9.9
2018-Apr-14 03:31N 54°32' E 010°25'5 9.9
2018-Apr-14 03:00N 54°34' E 010°33'5 9.6
2018-Apr-14 02:31N 54°35' E 010°41'510.2
2018-Apr-14 02:01N 54°35' E 010°50'510.4
2018-Apr-14 01:30N 54°36' E 010°59'5 9.9
2018-Apr-14 01:00N 54°37' E 011°07'510.6
2018-Apr-14 00:30N 54°35' E 011°16'510.6
2018-Apr-14 00:00N 54°32' E 011°24'510.5
2018-Apr-13 23:30N 54°30' E 011°32'611.0
2018-Apr-13 23:00N 54°28' E 011°40'611.0
2018-Apr-13 22:31N 54°26' E 011°49'610.7
2018-Apr-13 21:58N 54°26' E 011°59'510.7
2018-Apr-13 21:30N 54°27' E 012°08'6810.7
2018-Apr-13 15:09N 55°02' E 013°48'410.9
2018-Apr-13 14:49N 55°03' E 013°54'2110.3
2018-Apr-13 12:50N 55°17' E 014°20'411.4
2018-Apr-13 12:30N 55°20' E 014°24'511.0
2018-Apr-13 12:00N 55°25' E 014°30'811.0
2018-Apr-13 11:15N 55°30' E 014°42'310.9
2018-Apr-13 11:00N 55°31' E 014°46'611.0
2018-Apr-13 10:29N 55°34' E 014°55'511.1
2018-Apr-13 10:00N 55°37' E 015°03'511.1
2018-Apr-13 09:30N 55°40' E 015°11'611.2
2018-Apr-13 09:00N 55°42' E 015°20'611.2
2018-Apr-13 08:31N 55°45' E 015°28'611.1
2018-Apr-13 08:01N 55°47' E 015°37'611.4
2018-Apr-13 07:30N 55°50' E 015°46'611.6
2018-Apr-13 07:01N 55°53' E 015°55'611.4
2018-Apr-13 06:30N 55°56' E 016°04'611.7
2018-Apr-13 06:01N 55°59' E 016°13'612.1
2018-Apr-13 05:31N 56°02' E 016°22'612.1
2018-Apr-13 05:01N 56°05' E 016°32'612.0
2018-Apr-13 04:30N 56°08' E 016°41'611.6
2018-Apr-13 04:00N 56°13' E 016°45'611.8
2018-Apr-13 03:31N 56°19' E 016°48'  

Dump ship's entire track history